Palmyra, Pennsylvania
Current Conditions -  °F | °C
As of 2:00 PM on Tuesday 27 Jan 2015 (Local Time) from KMUI Reporting Station
Few Clouds Few Clouds  
Wind Chill: 18°   Ceiling: Unl
Heat Index: 28°   Visibility: 10mi
Dew Point:   Wind: 12mph
Humidity: 43%   Direction: 340°NNW
Pressure: 29.78"   Gusts: 21mph
Location:  40.31°N, 76.59°W
Report Text: KMUI 271900Z AUTO 34010G18KT 280V020 10SM FEW090 M02/M13 A2978 RMK AO2 WSHFT 1856
Loading
Personal Weather Stations






























Interactive Weather Map New forecast layout! Learn more

10-Day Weather Forecast

Advertisements
Track Severe Weather on mobile